Time;durP1;ratioP1;P1;durP2;ratioP2;P2;SDS_P1;SDS_P2;PMS_P1;PMS_P2;Temp;Humidity;BMP_temperature;BMP_pressure;BME280_temperature;BME280_humidity;BME280_pressure;Samples;Min_cycle;Max_cycle;Signal;HPM_P1;HPM_P2
2023/01/02 00:00:29;;;;;;;3.90;1.98;;;27.90;89.70;;;;;;5051649;28;20419;-80
2023/01/02 00:02:57;;;;;;;4.82;1.92;;;28.50;87.70;;;;;;5050134;28;20423;-79
2023/01/02 00:05:24;;;;;;;4.90;2.10;;;29.20;83.70;;;;;;5051178;28;20406;-80
2023/01/02 00:07:50;;;;;;;4.05;1.90;;;29.30;84.50;;;;;;5037979;28;20384;-79
2023/01/02 00:10:17;;;;;;;4.38;2.00;;;29.50;83.30;;;;;;5049143;28;20486;-80
2023/01/02 00:12:44;;;;;;;5.40;2.30;;;29.50;82.80;;;;;;5051508;28;20372;-80
2023/01/02 00:15:12;;;;;;;3.83;1.88;;;30.10;81.80;;;;;;5051907;28;20855;-79
2023/01/02 00:17:39;;;;;;;6.82;2.03;;;30.20;81.10;;;;;;5048993;28;20387;-80
2023/01/02 00:20:07;;;;;;;5.35;2.03;;;30.90;75.60;;;;;;5051282;28;20934;-80
2023/01/02 00:22:34;;;;;;;3.97;1.70;;;30.90;77.70;;;;;;5050891;28;20396;-79
2023/01/02 00:25:01;;;;;;;4.63;1.83;;;30.90;75.40;;;;;;5050509;28;20879;-78
2023/01/02 00:27:27;;;;;;;5.28;1.90;;;30.50;76.90;;;;;;5051108;28;20387;-80
2023/01/02 00:29:54;;;;;;;5.53;1.85;;;30.60;77.60;;;;;;5051181;28;20494;-80
2023/01/02 00:32:21;;;;;;;4.38;1.90;;;30.70;76.30;;;;;;5049137;28;20470;-80
2023/01/02 00:34:48;;;;;;;5.03;1.77;;;30.60;76.20;;;;;;5051080;28;20388;-79
2023/01/02 00:37:15;;;;;;;4.97;1.90;;;30.30;75.60;;;;;;5051328;28;20376;-79
2023/01/02 00:39:42;;;;;;;3.43;1.60;;;29.90;76.60;;;;;;5051153;28;20403;-79
2023/01/02 00:42:09;;;;;;;6.22;1.98;;;29.90;77.50;;;;;;5059805;28;20362;-79
2023/01/02 00:44:36;;;;;;;6.32;1.95;;;30.00;75.70;;;;;;5069852;28;20382;-79
2023/01/02 00:47:03;;;;;;;4.82;2.00;;;30.10;76.40;;;;;;5059976;28;20374;-78
2023/01/02 00:49:30;;;;;;;5.18;2.08;;;30.30;76.20;;;;;;5069417;28;20456;-79
2023/01/02 00:51:57;;;;;;;5.05;2.00;;;31.00;74.40;;;;;;5061008;28;20379;-79
2023/01/02 00:54:24;;;;;;;4.28;1.80;;;31.50;72.90;;;;;;5050197;28;20400;-79
2023/01/02 00:56:51;;;;;;;4.85;1.88;;;31.40;71.80;;;;;;5059114;28;20777;-79
2023/01/02 00:59:17;;;;;;;4.03;1.90;;;31.60;72.20;;;;;;5065827;28;20398;-80
2023/01/02 01:01:44;;;;;;;5.10;1.60;;;31.90;70.50;;;;;;5069765;28;20373;-78
2023/01/02 01:04:13;;;;;;;5.03;1.80;;;31.50;68.30;;;;;;5068500;28;20457;-79
2023/01/02 01:06:41;;;;;;;5.30;1.80;;;31.10;70.20;;;;;;5063705;28;20393;-78
2023/01/02 01:09:12;;;;;;;3.83;1.80;;;31.20;70.70;;;;;;5053772;28;20436;-79
2023/01/02 01:11:39;;;;;;;4.50;1.90;;;31.50;69.20;;;;;;5068577;28;20389;-79
2023/01/02 01:14:06;;;;;;;4.63;2.00;;;32.10;69.00;;;;;;5068486;28;20414;-78
2023/01/02 01:16:33;;;;;;;5.80;1.70;;;32.70;67.20;;;;;;5069222;28;20432;-79
2023/01/02 01:19:00;;;;;;;4.55;1.73;;;32.70;66.60;;;;;;5067897;28;20873;-80
2023/01/02 01:21:26;;;;;;;6.80;1.90;;;32.30;66.40;;;;;;5065588;28;20388;-78
2023/01/02 01:23:55;;;;;;;4.43;2.00;;;32.10;67.10;;;;;;5067474;28;20400;-79
2023/01/02 01:26:23;;;;;;;4.13;1.60;;;32.10;66.60;;;;;;5068240;28;20402;-79
2023/01/02 01:28:54;;;;;;;5.13;1.97;;;31.90;66.20;;;;;;5068106;28;20390;-79
2023/01/02 01:31:22;;;;;;;6.15;1.83;;;32.30;64.70;;;;;;5068041;28;20465;-79
2023/01/02 01:33:50;;;;;;;6.15;1.90;;;32.10;64.70;;;;;;5044860;28;20365;-79
2023/01/02 01:36:19;;;;;;;3.58;1.95;;;32.00;66.30;;;;;;5064754;28;20386;-79
2023/01/02 01:38:47;;;;;;;4.53;2.00;;;32.50;65.10;;;;;;5069236;28;20854;-80
2023/01/02 01:41:17;;;;;;;5.25;1.90;;;33.10;63.40;;;;;;5066311;28;20484;-79
2023/01/02 01:43:49;;;;;;;3.92;1.80;;;33.20;63.30;;;;;;5060136;28;20460;-79
2023/01/02 01:46:40;;;;;;;2.72;1.63;;;32.70;62.70;;;;;;5066436;28;20388;-79
2023/01/02 01:49:11;;;;;;;4.10;1.75;;;32.00;63.80;;;;;;5060304;28;20422;-79
2023/01/02 01:52:06;;;;;;;5.40;1.85;;;32.10;64.60;;;;;;5047927;28;20883;-78
2023/01/02 01:54:46;;;;;;;3.85;1.88;;;32.20;63.50;;;;;;5045582;28;20412;-78
2023/01/02 01:57:18;;;;;;;4.50;1.67;;;32.70;63.00;;;;;;5048005;28;20462;-82
2023/01/02 01:59:46;;;;;;;4.68;1.65;;;33.10;62.00;;;;;;5050837;28;20388;-81
2023/01/02 02:02:13;;;;;;;3.92;1.65;;;33.30;62.40;;;;;;5053303;28;20383;-81
2023/01/02 02:04:43;;;;;;;3.65;1.70;;;33.60;61.10;;;;;;5054568;28;20884;-80
2023/01/02 02:07:11;;;;;;;5.57;1.65;;;33.80;60.60;;;;;;5060348;28;20944;-81
2023/01/02 02:09:58;;;;;;;3.83;1.65;;;34.40;59.80;;;;;;5072699;28;20410;-81
2023/01/02 02:12:27;;;;;;;3.17;1.60;;;35.00;58.30;;;;;;5060491;28;20439;-77
2023/01/02 02:14:54;;;;;;;4.05;1.52;;;35.90;56.90;;;;;;5055882;28;20411;-79
2023/01/02 02:17:50;;;;;;;4.20;1.55;;;36.10;55.40;;;;;;5047329;28;20387;-79
2023/01/02 02:20:40;;;;;;;3.17;1.42;;;35.80;56.80;;;;;;5056644;28;20456;-82
2023/01/02 02:23:42;;;;;;;4.13;1.60;;;36.00;55.30;;;;;;5073577;28;20367;-80
2023/01/02 02:26:36;;;;;;;3.63;1.50;;;36.50;54.80;;;;;;5049703;28;20484;-80
2023/01/02 02:29:21;;;;;;;2.90;1.40;;;36.90;54.30;;;;;;5063090;28;20861;-80
2023/01/02 02:32:05;;;;;;;2.80;1.33;;;37.30;53.20;;;;;;5071572;28;20933;-80
2023/01/02 02:34:42;;;;;;;3.72;1.45;;;37.50;52.30;;;;;;5063343;28;20389;-81
2023/01/02 02:37:23;;;;;;;3.05;1.30;;;37.70;50.40;;;;;;5041152;28;20396;-79
2023/01/02 02:39:58;;;;;;;4.15;1.67;;;37.50;50.20;;;;;;5052957;28;20885;-80
2023/01/02 02:42:43;;;;;;;4.32;1.50;;;37.00;51.30;;;;;;5072654;28;20507;-84
2023/01/02 02:45:24;;;;;;;4.10;1.73;;;37.10;51.40;;;;;;5059301;28;20366;-84
2023/01/02 02:48:20;;;;;;;2.95;1.67;;;36.60;51.80;;;;;;5063655;28;20850;-83
2023/01/02 02:50:55;;;;;;;3.67;1.67;;;36.60;51.90;;;;;;5054000;28;20402;-84
2023/01/02 02:53:43;;;;;;;3.90;1.67;;;37.00;51.00;;;;;;5040517;28;20379;-85
2023/01/02 02:56:13;;;;;;;5.28;1.70;;;36.60;49.90;;;;;;5051848;28;20377;-87
2023/01/02 02:58:41;;;;;;;3.08;1.50;;;36.00;51.10;;;;;;5062742;28;20461;-84
2023/01/02 03:01:15;;;;;;;4.20;1.70;;;35.70;51.80;;;;;;5053277;28;20421;-83
2023/01/02 03:03:42;;;;;;;4.38;1.70;;;35.90;52.60;;;;;;5053189;28;20379;-85
2023/01/02 03:06:24;;;;;;;4.75;1.55;;;36.70;51.20;;;;;;5053630;28;20382;-86
2023/01/02 03:09:21;;;;;;;2.50;1.50;;;37.00;49.40;;;;;;5053045;28;20941;-84
2023/01/02 03:12:00;;;;;;;4.63;1.50;;;37.30;49.50;;;;;;5052533;28;20431;-87
2023/01/02 03:15:05;;;;;;;3.80;1.53;;;37.70;49.50;;;;;;5035254;28;20387;-87
2023/01/02 03:17:47;;;;;;;3.28;1.48;;;37.90;48.40;;;;;;5068320;28;20372;-84
2023/01/02 03:20:18;;;;;;;3.30;1.50;;;38.00;49.30;;;;;;5055126;28;20426;-84
2023/01/02 03:22:52;;;;;;;2.95;1.42;;;37.60;48.50;;;;;;5064113;28;20383;-83
2023/01/02 03:25:21;;;;;;;2.95;1.63;;;38.10;48.20;;;;;;5036055;28;21240;-82
2023/01/02 03:27:49;;;;;;;2.87;1.60;;;37.50;49.50;;;;;;5053950;28;20739;-84
2023/01/02 03:30:19;;;;;;;2.90;1.33;;;38.00;48.80;;;;;;5057150;28;20409;-86
2023/01/02 03:33:08;;;;;;;5.35;1.50;;;37.60;49.10;;;;;;5060893;28;20380;-87
2023/01/02 03:35:41;;;;;;;3.20;1.42;;;38.30;49.60;;;;;;5063256;28;20378;-84
2023/01/02 03:38:12;;;;;;;3.67;1.60;;;38.70;47.80;;;;;;5077840;28;20937;-84
2023/01/02 03:40:48;;;;;;;3.00;1.60;;;39.50;47.80;;;;;;5055479;28;20390;-88
2023/01/02 03:43:20;;;;;;;4.82;1.65;;;39.60;46.70;;;;;;5067528;28;20368;-86
2023/01/02 03:46:26;;;;;;;3.17;1.55;;;40.10;46.40;;;;;;5065547;28;20378;-86
2023/01/02 03:49:11;;;;;;;3.67;1.50;;;40.30;45.60;;;;;;4974032;28;20793;-88
2023/01/02 03:51:40;;;;;;;2.42;1.30;;;40.20;45.30;;;;;;4976422;28;20882;-83
2023/01/02 03:54:08;;;;;;;2.63;1.45;;;40.10;44.10;;;;;;4960529;28;20417;-89
2023/01/02 03:57:16;;;;;;;4.15;1.67;;;40.10;44.90;;;;;;4975264;28;20802;-83
2023/01/02 04:00:19;;;;;;;2.92;1.40;;;39.50;45.40;;;;;;4947719;28;20441;-82
2023/01/02 04:02:51;;;;;;;4.70;1.58;;;40.20;45.50;;;;;;4936682;29;20517;-82
2023/01/02 04:05:47;;;;;;;3.90;1.60;;;40.40;46.30;;;;;;4961985;28;20851;-84
2023/01/02 04:08:17;;;;;;;4.55;1.75;;;40.10;48.60;;;;;;4934013;28;20948;-82
2023/01/02 04:10:47;;;;;;;3.75;1.75;;;39.90;47.00;;;;;;4949094;28;20551;-82
2023/01/02 04:13:21;;;;;;;4.30;1.70;;;39.60;45.20;;;;;;4957136;28;20401;-84
2023/01/02 04:15:50;;;;;;;3.45;1.50;;;39.90;49.00;;;;;;4959149;28;20402;-83
2023/01/02 04:18:51;;;;;;;3.50;1.50;;;39.20;49.00;;;;;;4956175;28;20798;-82
2023/01/02 04:21:23;;;;;;;3.00;1.50;;;38.70;50.20;;;;;;4953093;28;20398;-82
2023/01/02 04:24:09;;;;;;;4.45;1.60;;;38.80;50.40;;;;;;4940424;28;20394;-82
2023/01/02 04:26:42;;;;;;;3.60;1.52;;;38.60;50.60;;;;;;4999785;28;20432;-83
2023/01/02 04:29:09;;;;;;;4.28;1.55;;;38.50;51.00;;;;;;5001844;28;20436;-78
2023/01/02 04:32:09;;;;;;;5.30;1.60;;;38.70;50.70;;;;;;4992024;28;20396;-81
2023/01/02 04:34:38;;;;;;;5.38;1.70;;;39.30;50.00;;;;;;4961776;28;20397;-82
2023/01/02 04:37:05;;;;;;;4.47;1.50;;;40.10;48.90;;;;;;4971265;28;20386;-82
2023/01/02 04:39:35;;;;;;;4.55;1.50;;;40.50;47.70;;;;;;4980078;28;20397;-83
2023/01/02 04:42:02;;;;;;;6.73;1.70;;;40.40;47.80;;;;;;4973876;28;20402;-83
2023/01/02 04:44:29;;;;;;;3.73;1.60;;;40.50;48.40;;;;;;4978134;28;20801;-82
2023/01/02 04:46:56;;;;;;;3.30;1.40;;;39.80;48.60;;;;;;4972156;28;20985;-83
2023/01/02 04:49:25;;;;;;;3.30;1.40;;;39.60;48.60;;;;;;4974498;28;20409;-84
2023/01/02 04:51:52;;;;;;;5.07;1.60;;;39.30;49.20;;;;;;4978608;28;20413;-82
2023/01/02 04:54:19;;;;;;;3.70;1.40;;;39.50;49.40;;;;;;4968537;28;20390;-82
2023/01/02 04:56:46;;;;;;;3.85;1.50;;;39.90;48.90;;;;;;4971425;28;20402;-82
2023/01/02 04:59:13;;;;;;;3.03;1.40;;;40.10;48.80;;;;;;4985658;28;20385;-82
2023/01/02 05:01:41;;;;;;;4.15;1.52;;;40.40;48.00;;;;;;4987599;28;20412;-81
2023/01/02 05:04:08;;;;;;;3.67;1.48;;;39.60;49.10;;;;;;4975772;28;20418;-81
2023/01/02 05:06:35;;;;;;;4.40;1.60;;;38.50;50.00;;;;;;4981697;28;20390;-80
2023/01/02 05:09:02;;;;;;;4.13;1.40;;;37.40;51.50;;;;;;4984023;28;22142;-81
2023/01/02 05:11:29;;;;;;;4.75;1.52;;;36.60;53.10;;;;;;5031172;28;20465;-81
2023/01/02 05:13:56;;;;;;;6.27;1.50;;;35.70;54.40;;;;;;5044876;28;20389;-81
2023/01/02 05:16:23;;;;;;;3.83;1.60;;;35.60;54.80;;;;;;5047267;28;20876;-81
2023/01/02 05:18:51;;;;;;;6.75;1.63;;;35.70;54.80;;;;;;5033680;28;20746;-81
2023/01/02 05:24:04;;;;;;;3.72;1.48;;;36.20;54.00;;;;;;5041891;28;20363;-82
2023/01/02 05:26:31;;;;;;;6.55;1.40;;;36.00;54.30;;;;;;5034827;28;20376;-83
2023/01/02 05:29:00;;;;;;;3.67;1.60;;;36.00;54.40;;;;;;5043910;28;20388;-82
2023/01/02 05:31:27;;;;;;;3.63;1.60;;;36.00;54.50;;;;;;5033850;28;20392;-83
2023/01/02 05:33:56;;;;;;;4.50;1.27;;;36.30;53.90;;;;;;5046537;28;20372;-83
2023/01/02 05:36:24;;;;;;;5.22;1.42;;;36.80;53.60;;;;;;5048626;28;20397;-84
2023/01/02 05:38:51;;;;;;;4.93;1.58;;;37.10;53.20;;;;;;5050598;28;20384;-84
2023/01/02 05:41:20;;;;;;;5.40;1.70;;;36.80;53.10;;;;;;5034703;28;20885;-82
2023/01/02 05:43:47;;;;;;;4.55;1.70;;;36.20;53.60;;;;;;5047274;28;20382;-82
2023/01/02 05:46:19;;;;;;;3.80;1.40;;;35.80;54.00;;;;;;5047816;28;20398;-83
2023/01/02 05:48:46;;;;;;;3.78;1.50;;;34.80;55.50;;;;;;5027523;28;20406;-82
2023/01/02 05:51:16;;;;;;;6.45;1.50;;;34.10;56.70;;;;;;5040849;28;20459;-82
2023/01/02 05:53:44;;;;;;;3.97;1.52;;;33.50;57.50;;;;;;5024670;28;20395;-82
2023/01/02 05:56:15;;;;;;;3.97;1.40;;;32.80;58.90;;;;;;5030642;28;20803;-82
2023/01/02 05:58:45;;;;;;;6.53;1.50;;;32.40;59.80;;;;;;5027633;28;20834;-82
2023/01/02 06:01:15;;;;;;;4.20;1.48;;;32.20;60.50;;;;;;5030866;28;20482;-82
2023/01/02 06:03:47;;;;;;;4.53;1.45;;;31.90;60.90;;;;;;5029248;28;20383;-82
2023/01/02 06:06:15;;;;;;;4.88;1.60;;;31.80;61.50;;;;;;5033678;28;20888;-82
2023/01/02 06:08:42;;;;;;;4.72;1.50;;;31.70;61.90;;;;;;5053049;28;20978;-84
2023/01/02 06:11:09;;;;;;;5.57;1.58;;;31.50;62.00;;;;;;5052601;28;20997;-78
2023/01/02 06:13:38;;;;;;;4.43;1.50;;;31.50;62.20;;;;;;5051836;28;20383;-85
2023/01/02 06:16:07;;;;;;;5.07;1.50;;;31.40;62.90;;;;;;5052506;28;20397;-83
2023/01/02 06:18:35;;;;;;;4.18;1.50;;;31.20;63.10;;;;;;5043150;28;20399;-82
2023/01/02 06:21:05;;;;;;;4.73;1.47;;;30.80;63.90;;;;;;5055016;28;20364;-82
2023/01/02 06:23:33;;;;;;;4.63;1.45;;;30.70;64.40;;;;;;5053892;28;20398;-79
2023/01/02 06:26:05;;;;;;;5.88;1.50;;;30.70;64.70;;;;;;5051360;28;20394;-81
2023/01/02 06:28:32;;;;;;;6.53;1.67;;;30.50;65.10;;;;;;5050620;28;20387;-84
2023/01/02 06:31:07;;;;;;;4.47;1.60;;;30.30;65.50;;;;;;5050507;28;20760;-82
2023/01/02 06:33:34;;;;;;;5.80;1.58;;;30.40;65.80;;;;;;5048535;28;20396;-81
2023/01/02 06:36:04;;;;;;;17.60;11.18;;;30.60;65.60;;;;;;5052788;28;20512;-82
2023/01/02 06:38:31;;;;;;;14.32;8.07;;;30.50;65.10;;;;;;5055067;28;20384;-81
2023/01/02 06:41:00;;;;;;;8.07;5.30;;;30.30;65.70;;;;;;5047680;28;20741;-82
2023/01/02 06:43:29;;;;;;;60.03;32.78;;;30.20;66.40;;;;;;5052605;28;20382;-82
2023/01/02 06:46:04;;;;;;;10.07;4.15;;;30.10;66.60;;;;;;5052181;28;20387;-84
2023/01/02 06:48:34;;;;;;;9.27;1.85;;;29.80;67.40;;;;;;5041667;28;20418;-82
2023/01/02 06:51:05;;;;;;;5.80;1.80;;;29.70;67.70;;;;;;5053613;28;20413;-82
2023/01/02 06:53:37;;;;;;;5.35;1.80;;;29.50;68.40;;;;;;5051148;28;20883;-81
2023/01/02 06:56:05;;;;;;;5.25;1.70;;;29.40;68.70;;;;;;5053351;28;20382;-82
2023/01/02 06:58:33;;;;;;;5.72;1.67;;;29.50;68.30;;;;;;5051063;28;20388;-82
2023/01/02 07:01:22;;;;;;;5.63;1.67;;;29.60;68.80;;;;;;5045565;28;20407;-82
2023/01/02 07:03:49;;;;;;;6.30;1.67;;;29.60;69.10;;;;;;5047553;28;20412;-82
2023/01/02 07:06:19;;;;;;;6.25;1.90;;;29.30;69.80;;;;;;5059005;28;20374;-82
2023/01/02 07:08:47;;;;;;;5.57;1.80;;;29.30;70.30;;;;;;5063500;28;20393;-81
2023/01/02 07:11:17;;;;;;;6.35;1.60;;;29.40;70.30;;;;;;5060585;28;20402;-83
2023/01/02 07:13:46;;;;;;;6.57;1.90;;;29.50;69.50;;;;;;5072139;28;20475;-81
2023/01/02 07:16:15;;;;;;;7.07;1.88;;;29.30;70.20;;;;;;5076171;28;20389;-81
2023/01/02 07:18:42;;;;;;;6.72;1.88;;;29.30;70.20;;;;;;5060733;28;20415;-81
2023/01/02 07:21:11;;;;;;;6.00;1.60;;;29.50;69.70;;;;;;5044972;28;20388;-82
2023/01/02 07:23:38;;;;;;;7.60;1.80;;;29.40;69.60;;;;;;5061522;28;20391;-81
2023/01/02 07:26:06;;;;;;;7.00;1.70;;;29.20;70.40;;;;;;5067932;28;20377;-83
2023/01/02 07:28:34;;;;;;;6.80;1.77;;;29.00;70.90;;;;;;5065552;28;20838;-83
2023/01/02 07:31:08;;;;;;;8.63;1.77;;;28.90;71.00;;;;;;5070865;28;20402;-81
2023/01/02 07:33:35;;;;;;;6.03;1.92;;;28.70;71.40;;;;;;5069805;28;20382;-81
2023/01/02 07:36:05;;;;;;;5.90;1.70;;;28.70;72.30;;;;;;5063349;28;20378;-81
2023/01/02 07:38:33;;;;;;;5.50;1.80;;;28.70;71.30;;;;;;5070670;28;20384;-81
2023/01/02 07:41:00;;;;;;;7.35;2.00;;;28.60;70.90;;;;;;5064958;28;20427;-81
2023/01/02 07:43:27;;;;;;;7.53;1.98;;;28.40;71.70;;;;;;5047201;28;20392;-81
2023/01/02 07:45:54;;;;;;;5.93;2.15;;;28.30;72.20;;;;;;5049372;28;20398;-82
2023/01/02 07:48:21;;;;;;;5.88;1.67;;;28.20;72.30;;;;;;5040731;28;20392;-80
2023/01/02 07:50:48;;;;;;;6.32;1.80;;;28.10;73.00;;;;;;5052449;28;20408;-80
2023/01/02 07:53:15;;;;;;;4.97;1.65;;;27.90;73.30;;;;;;5053320;28;20430;-83
2023/01/02 07:55:42;;;;;;;6.70;1.70;;;27.80;73.80;;;;;;5052851;28;20384;-81
2023/01/02 07:58:09;;;;;;;6.32;1.90;;;27.60;74.10;;;;;;5050542;28;20391;-81
2023/01/02 08:00:36;;;;;;;10.52;2.20;;;27.50;74.80;;;;;;5041583;28;20415;-80
2023/01/02 08:03:03;;;;;;;7.20;1.77;;;27.40;75.10;;;;;;5052873;28;20768;-80
2023/01/02 08:05:32;;;;;;;9.57;2.10;;;27.30;75.50;;;;;;5048513;28;20388;-79
2023/01/02 08:07:59;;;;;;;10.40;2.00;;;27.30;75.80;;;;;;5052246;28;20790;-80
2023/01/02 08:10:26;;;;;;;7.82;2.10;;;27.20;76.20;;;;;;5051924;28;20404;-82
2023/01/02 08:12:53;;;;;;;5.93;2.07;;;27.30;76.40;;;;;;5040832;28;20388;-82
2023/01/02 08:15:20;;;;;;;9.80;1.98;;;27.30;76.30;;;;;;5053002;28;20376;-80
2023/01/02 08:17:47;;;;;;;6.43;1.98;;;27.30;76.50;;;;;;5050670;28;20428;-80
2023/01/02 08:20:13;;;;;;;7.35;2.10;;;27.30;76.60;;;;;;5053069;28;20957;-80
2023/01/02 08:22:40;;;;;;;7.57;1.83;;;27.20;77.10;;;;;;5054527;28;20750;-82
2023/01/02 08:25:08;;;;;;;8.03;2.37;;;27.10;77.20;;;;;;5052196;28;20387;-81
2023/01/02 08:27:35;;;;;;;6.57;2.00;;;27.00;77.40;;;;;;5049342;28;20477;-82
2023/01/02 08:30:03;;;;;;;7.18;1.95;;;26.80;77.80;;;;;;5052182;28;20434;-81
2023/01/02 08:32:34;;;;;;;7.05;2.17;;;26.70;78.50;;;;;;5046075;28;20393;-80
2023/01/02 08:35:01;;;;;;;9.20;2.00;;;26.70;78.90;;;;;;5051675;28;20438;-82
2023/01/02 08:37:27;;;;;;;7.35;2.03;;;26.60;79.30;;;;;;5061587;28;20874;-82
2023/01/02 08:39:54;;;;;;;5.53;1.90;;;26.60;79.50;;;;;;5048341;28;20485;-80
2023/01/02 08:42:21;;;;;;;8.13;2.20;;;26.50;80.00;;;;;;5050408;28;20746;-82
2023/01/02 08:44:48;;;;;;;8.17;2.30;;;26.50;80.30;;;;;;5061254;28;20883;-79
2023/01/02 08:47:15;;;;;;;8.23;2.17;;;26.30;80.60;;;;;;5050963;28;20383;-82
2023/01/02 08:49:42;;;;;;;9.73;2.00;;;26.30;81.20;;;;;;5053072;28;20404;-80
2023/01/02 08:52:09;;;;;;;7.45;2.60;;;26.20;81.70;;;;;;5050233;28;20368;-82
2023/01/02 08:54:36;;;;;;;7.25;2.10;;;26.10;82.00;;;;;;5050278;28;20387;-81
2023/01/02 08:57:03;;;;;;;9.60;2.20;;;26.00;82.40;;;;;;5038874;28;20373;-80
2023/01/02 08:59:30;;;;;;;7.28;2.45;;;25.90;83.00;;;;;;5051325;28;20718;-79
2023/01/02 09:01:57;;;;;;;9.00;2.70;;;25.70;84.00;;;;;;5052008;28;20492;-80
2023/01/02 09:04:24;;;;;;;8.45;2.70;;;25.70;84.60;;;;;;5052670;28;20868;-81
2023/01/02 09:06:51;;;;;;;8.73;2.50;;;25.70;85.00;;;;;;5051046;28;20823;-81
2023/01/02 09:09:18;;;;;;;9.82;2.83;;;25.60;85.20;;;;;;5052449;28;20386;-80
2023/01/02 09:11:51;;;;;;;8.45;2.40;;;25.50;85.50;;;;;;5053287;28;20740;-81
2023/01/02 09:14:21;;;;;;;8.90;2.30;;;25.40;86.10;;;;;;5042002;28;20427;-82
2023/01/02 09:16:49;;;;;;;10.93;2.40;;;25.40;86.80;;;;;;5054463;28;20970;-81
2023/01/02 09:19:16;;;;;;;8.93;2.38;;;25.30;87.20;;;;;;5048336;28;20384;-82
2023/01/02 09:21:43;;;;;;;8.90;2.40;;;25.30;87.90;;;;;;5052883;28;20399;-79
2023/01/02 09:24:10;;;;;;;8.98;2.30;;;25.30;87.60;;;;;;5052492;28;20910;-81
2023/01/02 09:26:40;;;;;;;7.20;2.30;;;25.30;87.60;;;;;;5051651;28;20398;-80
2023/01/02 09:29:08;;;;;;;8.70;2.20;;;25.10;88.20;;;;;;5053563;28;20368;-80
2023/01/02 09:31:35;;;;;;;11.48;2.55;;;25.00;88.60;;;;;;5049930;28;20388;-82
2023/01/02 09:34:02;;;;;;;10.45;2.40;;;25.00;89.20;;;;;;5041917;28;20390;-81
2023/01/02 09:36:29;;;;;;;8.00;2.30;;;25.10;89.50;;;;;;5048983;28;20392;-80
2023/01/02 09:38:58;;;;;;;8.52;2.30;;;25.00;89.30;;;;;;5052923;28;20776;-80
2023/01/02 09:41:43;;;;;;;9.52;2.33;;;25.00;89.70;;;;;;5051977;28;20380;-81
2023/01/02 09:44:22;;;;;;;8.48;2.60;;;24.90;90.20;;;;;;5053237;28;20406;-80
2023/01/02 09:47:05;;;;;;;10.13;2.58;;;24.80;90.50;;;;;;5035468;28;20394;-81
2023/01/02 09:49:42;;;;;;;9.52;2.38;;;24.80;90.80;;;;;;5052990;28;20392;-82
2023/01/02 09:52:21;;;;;;;8.73;2.30;;;24.70;90.80;;;;;;5052566;28;20387;-82
2023/01/02 09:54:48;;;;;;;6.88;2.50;;;24.70;91.10;;;;;;5052521;28;20363;-83
2023/01/02 09:57:28;;;;;;;9.10;2.33;;;24.70;91.30;;;;;;5053360;28;20388;-81
2023/01/02 10:00:20;;;;;;;10.38;2.60;;;24.70;91.60;;;;;;5023263;28;20863;-83
2023/01/02 10:02:52;;;;;;;9.20;2.20;;;24.60;91.80;;;;;;5051849;28;20388;-82
2023/01/02 10:05:48;;;;;;;12.10;2.42;;;24.70;92.10;;;;;;5052935;28;20395;-83
2023/01/02 10:08:36;;;;;;;8.45;2.42;;;24.70;92.30;;;;;;5042391;28;20434;-81
2023/01/02 10:11:24;;;;;;;10.85;2.65;;;24.60;92.50;;;;;;5048433;28;20435;-83
2023/01/02 10:13:57;;;;;;;10.23;2.53;;;24.60;92.70;;;;;;5048451;28;20460;-81
2023/01/02 10:16:30;;;;;;;12.80;2.70;;;24.50;93.20;;;;;;5044224;28;20421;-82
2023/01/02 10:19:04;;;;;;;11.80;2.75;;;24.40;93.70;;;;;;5042345;28;20384;-82
2023/01/02 10:21:36;;;;;;;10.70;2.72;;;24.30;94.20;;;;;;5054704;28;20386;-82
2023/01/02 10:24:06;;;;;;;12.63;2.80;;;24.30;94.60;;;;;;5040836;28;20736;-82
2023/01/02 10:26:40;;;;;;;9.77;2.40;;;24.20;95.00;;;;;;5052645;28;20407;-81
2023/01/02 10:29:19;;;;;;;12.43;2.53;;;24.20;95.50;;;;;;5052047;28;20379;-82
2023/01/02 10:32:15;;;;;;;14.90;2.80;;;24.10;95.90;;;;;;5053010;28;20386;-83
2023/01/02 10:35:06;;;;;;;9.50;2.70;;;24.10;96.40;;;;;;5048306;28;20426;-82
2023/01/02 10:37:34;;;;;;;12.75;2.80;;;24.10;96.90;;;;;;5050951;28;20389;-83
2023/01/02 10:40:01;;;;;;;11.80;2.60;;;24.10;97.20;;;;;;5047135;28;20426;-82
2023/01/02 10:42:32;;;;;;;10.10;2.90;;;24.10;97.70;;;;;;5052731;28;20848;-81
2023/01/02 10:45:00;;;;;;;13.48;3.30;;;24.10;97.80;;;;;;5039405;28;20372;-83
2023/01/02 10:47:38;;;;;;;14.48;3.33;;;24.00;98.20;;;;;;5045999;28;20860;-82
2023/01/02 10:50:10;;;;;;;12.02;2.70;;;24.00;98.50;;;;;;5040514;28;20413;-81
2023/01/02 10:52:45;;;;;;;10.80;2.83;;;24.00;98.90;;;;;;5053935;28;20367;-81
2023/01/02 10:55:12;;;;;;;9.77;2.70;;;24.00;99.20;;;;;;5045445;28;20426;-81
2023/01/02 10:57:50;;;;;;;8.82;2.40;;;24.00;99.30;;;;;;5043222;28;20381;-82
2023/01/02 11:00:24;;;;;;;11.18;2.70;;;24.00;99.60;;;;;;5034425;28;20462;-79
2023/01/02 11:02:54;;;;;;;11.77;2.70;;;23.90;99.90;;;;;;5051233;28;20383;-80
2023/01/02 11:05:24;;;;;;;13.18;3.00;;;24.00;99.90;;;;;;5027007;28;20442;-82
2023/01/02 11:07:52;;;;;;;11.77;2.70;;;23.90;99.90;;;;;;5052241;28;20756;-81
2023/01/02 11:10:27;;;;;;;12.13;2.45;;;24.00;99.90;;;;;;5051905;28;20845;-81
2023/01/02 11:12:54;;;;;;;14.02;3.17;;;23.90;99.90;;;;;;5039184;28;20376;-83
2023/01/02 11:15:33;;;;;;;15.52;2.60;;;23.80;99.90;;;;;;5051596;28;20391;-81
2023/01/02 11:18:10;;;;;;;19.10;3.10;;;23.90;99.90;;;;;;5047993;28;20475;-82
2023/01/02 11:20:37;;;;;;;15.45;2.95;;;23.90;99.90;;;;;;5052033;28;20421;-82
2023/01/02 11:23:05;;;;;;;11.60;2.63;;;23.80;99.90;;;;;;5052042;28;20384;-80
2023/01/02 11:25:41;;;;;;;9.80;2.83;;;23.90;99.90;;;;;;5053768;28;20410;-83
2023/01/02 11:28:18;;;;;;;11.47;3.07;;;23.80;99.90;;;;;;5050914;28;20391;-82
2023/01/02 11:30:53;;;;;;;12.00;2.90;;;23.90;99.90;;;;;;5048566;28;20421;-80
2023/01/02 11:33:30;;;;;;;14.15;3.33;;;23.80;99.90;;;;;;5045176;28;20384;-81
2023/01/02 11:36:12;;;;;;;13.93;3.00;;;23.70;99.90;;;;;;5047384;28;20550;-82
2023/01/02 11:38:48;;;;;;;11.15;2.88;;;23.70;99.90;;;;;;5050226;28;20380;-81
2023/01/02 11:45:03;;;;;;;9.88;2.70;;;23.60;99.90;;;;;;5046786;28;20438;-82
2023/01/02 11:47:57;;;;;;;11.33;2.80;;;23.60;99.90;;;;;;5039631;28;20395;-81
2023/01/02 11:50:30;;;;;;;13.52;2.95;;;23.50;99.90;;;;;;5044115;28;20412;-81
2023/01/02 11:53:03;;;;;;;11.05;2.85;;;23.50;99.90;;;;;;5039951;28;20382;-81
2023/01/02 11:56:26;;;;;;;11.18;2.80;;;23.50;99.90;;;;;;5046523;28;20384;-81
2023/01/02 11:59:01;;;;;;;13.48;3.03;;;23.40;99.90;;;;;;4970438;28;20394;-81
2023/01/02 12:01:36;;;;;;;12.18;2.95;;;23.40;99.90;;;;;;4973174;28;20395;-81
2023/01/02 12:04:04;;;;;;;16.23;3.05;;;23.40;99.90;;;;;;4970667;28;20399;-81
2023/01/02 12:06:59;;;;;;;10.73;3.10;;;23.40;99.90;;;;;;4969927;28;20521;-82
2023/01/02 12:09:42;;;;;;;12.83;3.17;;;23.40;99.90;;;;;;4969048;28;20407;-80
2023/01/02 12:12:22;;;;;;;14.33;2.80;;;23.40;99.90;;;;;;4970735;28;20907;-81
2023/01/02 12:14:54;;;;;;;12.80;2.97;;;23.40;99.90;;;;;;4970750;28;20932;-82
2023/01/02 12:17:28;;;;;;;11.05;2.75;;;23.40;99.90;;;;;;4970942;28;20878;-81
2023/01/02 12:20:11;;;;;;;11.95;3.10;;;23.30;99.90;;;;;;4969887;28;20458;-82
2023/01/02 12:22:56;;;;;;;11.23;2.90;;;23.30;99.90;;;;;;4970367;28;20502;-82
2023/01/02 12:26:02;;;;;;;12.05;2.88;;;23.30;99.90;;;;;;4971104;28;20478;-81
2023/01/02 12:28:40;;;;;;;19.95;3.58;;;23.20;99.90;;;;;;4970647;28;20392;-82
2023/01/02 12:31:57;;;;;;;12.63;3.03;;;23.20;99.90;;;;;;4963952;28;20422;-81
2023/01/02 12:34:38;;;;;;;17.27;3.22;;;23.20;99.90;;;;;;4985592;28;20381;-81
2023/01/02 12:37:32;;;;;;;13.20;3.10;;;23.20;99.90;;;;;;5033326;28;20392;-81
2023/01/02 12:40:23;;;;;;;14.40;3.17;;;23.20;99.90;;;;;;5038537;28;20394;-82
2023/01/02 12:43:02;;;;;;;13.13;3.20;;;23.10;99.90;;;;;;5029407;28;20754;-80
2023/01/02 12:45:52;;;;;;;11.90;3.00;;;23.10;99.90;;;;;;5028561;28;20476;-82
2023/01/02 12:48:34;;;;;;;11.45;2.90;;;23.10;99.90;;;;;;5032359;28;20394;-80
2023/01/02 12:51:33;;;;;;;14.10;3.27;;;23.10;99.90;;;;;;5010084;28;21329;-82
2023/01/02 12:54:09;;;;;;;12.00;2.90;;;23.00;99.90;;;;;;5014501;28;20774;-80
2023/01/02 12:57:12;;;;;;;14.60;3.20;;;23.00;99.90;;;;;;5015333;28;20397;-82
2023/01/02 12:59:57;;;;;;;15.13;3.17;;;23.00;99.90;;;;;;4965446;28;20393;-81
2023/01/02 13:02:48;;;;;;;15.55;3.22;;;22.90;99.90;;;;;;4957498;28;20490;-81
2023/01/02 13:05:21;;;;;;;14.63;3.08;;;22.90;99.90;;;;;;4951678;28;20435;-81
2023/01/02 13:07:51;;;;;;;13.00;3.00;;;22.90;99.90;;;;;;4953633;28;20844;-81
2023/01/02 13:10:23;;;;;;;14.90;3.40;;;22.90;99.90;;;;;;4961423;28;20425;-82
2023/01/02 13:12:52;;;;;;;14.55;3.15;;;22.90;99.90;;;;;;4959921;28;20461;-81
2023/01/02 13:15:30;;;;;;;12.98;2.97;;;22.90;99.90;;;;;;4964878;28;20865;-81
2023/01/02 13:18:07;;;;;;;13.45;3.15;;;22.90;99.90;;;;;;4965907;28;20394;-81
2023/01/02 13:20:55;;;;;;;12.38;3.10;;;22.90;99.90;;;;;;4966138;28;20493;-80